CZEM/ZEM METAR and TAF weather

Enter ICAO airport designator
Station Type Date Time Source
CZEM METAR 2021/04/06 15:00 UTC NOAA

CZEM 061500Z 14009G19KT 15SM SCT240 06/M07 A3002 RMK CI7 LAST STFD OBS/NEXT 251400 UTC SLP168


Station Type Date Time Source
CZEM Decoded METAR 2021/04/06 15:00 UTC NOAA

Eastmain River Airport, Canada (CZEM) 52-14N 078-31W
Apr 06, 2021 - 11:00 AM EDT / 2021.04.06 1500 UTC
Wind: from the SE (140 degrees) at 10 MPH (9 KT) gusting to 22 MPH (19 KT):0
Visibility: 15 mile(s):0
Sky conditions: partly cloudy
Temperature: 42 F (6 C)
Dew Point: 19 F (-7 C)
Relative Humidity: 38%
Pressure (altimeter): 30.02 in. Hg (1016 hPa)
ob: CZEM 061500Z 14009G19KT 15SM SCT240 06/M07 A3002 RMK CI7 LAST STFD OBS/NEXT 251400 UTC SLP168
cycle: 15

Station Type Date Time Source
CZEM TAF UTC NOAA

Error!

Example: see airport list